Kansas City, Missouri
Traffic Map
Current Weather Conditions
Kansas City, Missouri
Broken Clouds
Broken Clouds
29°
Feels Like: 29°
Wind Chill: 29° Ceiling: 6500
Heat Index: 29° Visibility: 10mi
Dew Point: 14° Wind: 12mph
Humidity: 38% Direction: 190° (S)
Pressure: 29.79in Gusts: 0mph
Raw Report DataKMKC 302154Z 19010KT 10SM BKN065 29/14 A2979 RMK AO2 SLP079 T02940139
Traffic Incident Summary
Active as of:
Severity:
Category:
InformationThere was an issue retrieving the traffic information for this location. Please try a different location or try again shortly.
Advertisements
Track Severe Weather on mobile